Time;durP1;ratioP1;P1;durP2;ratioP2;P2;SDS_P1;SDS_P2;PMS_P1;PMS_P2;Temp;Humidity;BMP_temperature;BMP_pressure;BME280_temperature;BME280_humidity;BME280_pressure;Samples;Min_cycle;Max_cycle;Signal;HPM_P1;HPM_P2
2023/04/27 00:01:05;;;;;;;;;;;;;;;5.07;63.26;100110.22;4475549;32;34253;-76
2023/04/27 00:03:32;;;;;;;;;;;;;;;4.40;65.05;100116.47;4470927;32;34359;-77
2023/04/27 00:06:00;;;;;;;;;;;;;;;4.57;65.15;100110.03;4473608;32;34224;-77
2023/04/27 00:08:28;;;;;;;;;;;;;;;4.57;64.74;100110.03;4472477;32;33606;-77
2023/04/27 00:10:55;;;;;;;;;;;;;;;5.85;61.35;100117.34;4475769;32;34054;-77
2023/04/27 00:13:22;;;;;;;;;;;;;;;6.40;58.95;100110.81;4460364;32;33356;-77
2023/04/27 00:15:50;;;;;;;;;;;;;;;6.77;56.78;100107.19;4480096;32;34810;-77
2023/04/27 00:18:17;;;;;;;;;;;;;;;5.49;60.26;100119.19;4473508;32;35564;-76
2023/04/27 00:20:44;;;;;;;;;;;;;;;5.19;62.18;100121.34;4480611;32;33825;-77
2023/04/27 00:23:12;;;;;;;;;;;;;;;6.12;59.07;100117.47;4473396;32;33176;-77
2023/04/27 00:25:39;;;;;;;;;;;;;;;6.47;57.33;100113.03;4465905;32;34838;-77
2023/04/27 00:28:07;;;;;;;;;;;;;;;6.40;57.54;100115.97;4468501;32;35765;-77
2023/04/27 00:30:34;;;;;;;;;;;;;;;6.63;56.10;100106.31;4473180;32;34085;-77
2023/04/27 00:33:02;;;;;;;;;;;;;;;4.87;61.27;100109.69;4478565;32;33441;-77
2023/04/27 00:35:31;;;;;;;;;;;;;;;4.57;63.22;100110.03;4475836;32;34736;-77
2023/04/27 00:37:58;;;;;;;;;;;;;;;4.58;63.58;100104.09;4465518;32;35001;-77
2023/04/27 00:40:26;;;;;;;;;;;;;;;4.53;63.85;100103.75;4459662;32;35195;-77
2023/04/27 00:42:53;;;;;;;;;;;;;;;4.39;64.35;100110.44;4471577;32;34349;-76
2023/04/27 00:45:20;;;;;;;;;;;;;;;4.58;63.93;100111.78;4470185;32;34332;-76
2023/04/27 00:47:47;;;;;;;;;;;;;;;4.19;66.36;100111.53;4480842;32;33929;-77
2023/04/27 00:50:15;;;;;;;;;;;;;;;4.21;67.20;100111.63;4457867;32;34477;-77
2023/04/27 00:52:42;;;;;;;;;;;;;;;4.44;66.21;100111.69;4472029;32;34040;-77
2023/04/27 00:55:09;;;;;;;;;;;;;;;4.86;64.86;100109.56;4455170;32;34139;-77
2023/04/27 00:57:39;;;;;;;;;;;;;;;4.90;64.21;100112.44;4468305;32;34806;-77
2023/04/27 01:00:06;;;;;;;;;;;;;;;4.72;64.93;100109.47;4471068;32;35054;-77
2023/04/27 01:02:34;;;;;;;;;;;;;;;4.51;65.33;100116.47;4473456;32;34330;-77
2023/04/27 01:05:02;;;;;;;;;;;;;;;4.61;65.77;100104.31;4481134;32;34573;-77
2023/04/27 01:07:29;;;;;;;;;;;;;;;4.68;65.33;100104.87;4460788;32;34879;-77
2023/04/27 01:09:57;;;;;;;;;;;;;;;4.40;66.32;100112.22;4468312;32;34656;-77
2023/04/27 01:12:24;;;;;;;;;;;;;;;4.30;66.58;100104.63;4477551;32;33432;-77
2023/04/27 01:14:52;;;;;;;;;;;;;;;4.22;66.58;100105.75;4446981;32;874287;-77
2023/04/27 01:17:19;;;;;;;;;;;;;;;4.26;67.04;100108.63;4474786;32;34282;-77
2023/04/27 01:19:46;;;;;;;;;;;;;;;4.19;66.95;100110.63;4471275;32;34725;-76
2023/04/27 01:22:16;;;;;;;;;;;;;;;4.21;67.37;100111.63;4456250;32;33391;-77
2023/04/27 01:24:43;;;;;;;;;;;;;;;3.91;68.78;100123.94;4468941;32;34158;-77
2023/04/27 01:27:11;;;;;;;;;;;;;;;3.76;69.64;100118.53;4467838;32;34203;-77
2023/04/27 01:29:39;;;;;;;;;;;;;;;3.52;70.83;100127.78;4472187;32;34955;-76
2023/04/27 01:32:08;;;;;;;;;;;;;;;3.53;70.62;100116.75;4477539;32;34156;-77
2023/04/27 01:34:35;;;;;;;;;;;;;;;3.83;69.34;100119.91;4471950;32;34933;-77
2023/04/27 01:37:03;;;;;;;;;;;;;;;3.78;69.15;100131.47;4469212;32;34927;-77
2023/04/27 01:39:30;;;;;;;;;;;;;;;4.16;67.54;100126.69;4469741;32;35093;-77
2023/04/27 01:41:59;;;;;;;;;;;;;;;3.66;68.87;100131.41;4472176;32;33652;-77
2023/04/27 01:44:26;;;;;;;;;;;;;;;4.31;66.58;100134.63;4445479;32;33448;-77
2023/04/27 01:46:54;;;;;;;;;;;;;;;4.01;68.38;100141.78;4473046;32;34273;-77
2023/04/27 01:49:21;;;;;;;;;;;;;;;4.36;67.52;100134.97;4463814;32;34485;-77
2023/04/27 01:51:48;;;;;;;;;;;;;;;3.92;69.28;100139.44;4472671;32;33402;-77
2023/04/27 01:54:15;;;;;;;;;;;;;;;3.87;69.66;100137.28;4480401;32;34486;-77
2023/04/27 01:56:43;;;;;;;;;;;;;;;3.73;69.87;100139.69;4473688;32;33528;-77
2023/04/27 01:59:10;;;;;;;;;;;;;;;4.00;69.65;100140.03;4477592;32;35144;-78
2023/04/27 02:01:37;;;;;;;;;;;;;;;3.96;69.67;100147.34;4469410;32;33625;-77
2023/04/27 02:04:05;;;;;;;;;;;;;;;3.91;69.81;100131.63;4481889;32;34146;-77
2023/04/27 02:06:33;;;;;;;;;;;;;;;3.94;69.80;100140.44;4472168;32;33901;-77
2023/04/27 02:09:00;;;;;;;;;;;;;;;3.97;69.34;100138.87;4480960;32;34222;-77
2023/04/27 02:11:27;;;;;;;;;;;;;;;3.77;70.03;100145.03;4468537;32;33471;-77
2023/04/27 02:13:55;;;;;;;;;;;;;;;3.46;70.98;100142.69;4453862;32;33622;-76
2023/04/27 02:16:29;;;;;;;;;;;;;;;3.85;70.06;100146.53;4451174;32;33917;-77
2023/04/27 02:18:58;;;;;;;;;;;;;;;3.93;69.27;100148.00;4461388;32;34230;-77
2023/04/27 02:21:25;;;;;;;;;;;;;;;4.74;67.22;100145.50;4459598;32;33438;-77
2023/04/27 02:23:52;;;;;;;;;;;;;;;4.57;66.45;100145.94;4457370;32;34616;-77
2023/04/27 02:26:20;;;;;;;;;;;;;;;3.87;68.72;100152.66;4455165;32;35142;-77
2023/04/27 02:28:48;;;;;;;;;;;;;;;3.83;69.37;100155.78;4453517;32;34480;-77
2023/04/27 02:31:16;;;;;;;;;;;;;;;3.51;70.96;100159.28;4453907;32;34216;-77
2023/04/27 02:33:45;;;;;;;;;;;;;;;3.64;70.76;100164.59;4453004;32;33978;-77
2023/04/27 02:36:13;;;;;;;;;;;;;;;3.38;71.69;100166.78;4451672;32;34231;-77
2023/04/27 02:38:40;;;;;;;;;;;;;;;3.25;72.47;100163.25;4436935;32;34589;-77
2023/04/27 02:41:09;;;;;;;;;;;;;;;3.51;71.48;100172.97;4457427;32;34233;-76
2023/04/27 02:43:36;;;;;;;;;;;;;;;4.16;69.09;100171.94;4459562;32;34996;-77
2023/04/27 02:46:04;;;;;;;;;;;;;;;3.27;72.23;100179.63;4449272;32;34239;-77
2023/04/27 02:48:31;;;;;;;;;;;;;;;3.52;72.09;100179.00;4441166;32;34739;-77
2023/04/27 02:51:01;;;;;;;;;;;;;;;4.68;68.06;100170.72;4440508;32;32759;-77
2023/04/27 02:53:28;;;;;;;;;;;;;;;3.58;70.63;100169.25;4447994;32;34075;-77
2023/04/27 02:55:57;;;;;;;;;;;;;;;3.60;71.28;100175.38;4429745;32;34047;-77
2023/04/27 02:58:24;;;;;;;;;;;;;;;3.60;71.06;100175.38;4451948;32;34666;-77
2023/04/27 03:00:55;;;;;;;;;;;;;;;3.60;71.13;100187.28;4453502;32;33256;-77
2023/04/27 03:03:23;;;;;;;;;;;;;;;2.94;73.81;100181.28;4441909;32;34017;-77
2023/04/27 03:05:50;;;;;;;;;;;;;;;3.02;73.87;100188.69;4452257;32;34113;-77
2023/04/27 03:08:18;;;;;;;;;;;;;;;3.11;73.77;100186.84;4452008;32;35085;-77
2023/04/27 03:10:45;;;;;;;;;;;;;;;3.08;74.22;100194.28;4454014;32;34060;-77
2023/04/27 03:13:13;;;;;;;;;;;;;;;3.04;74.45;100194.81;4452339;32;34881;-77
2023/04/27 03:15:42;;;;;;;;;;;;;;;3.43;72.91;100193.66;4457445;32;34152;-77
2023/04/27 03:18:10;;;;;;;;;;;;;;;3.40;72.69;100193.37;4466655;32;34477;-77
2023/04/27 03:20:37;;;;;;;;;;;;;;;3.21;73.19;100191.06;4456312;32;33588;-77
2023/04/27 03:23:05;;;;;;;;;;;;;;;3.23;72.81;100187.84;4469134;32;34991;-77
2023/04/27 03:25:33;;;;;;;;;;;;;;;3.33;72.73;100192.03;4471067;32;34241;-77
2023/04/27 03:28:00;;;;;;;;;;;;;;;3.27;72.78;100194.97;4465334;32;34854;-77
2023/04/27 03:30:27;;;;;;;;;;;;;;;3.03;73.53;100199.00;4465382;32;33806;-77
2023/04/27 03:32:55;;;;;;;;;;;;;;;3.15;73.38;100202.59;4466375;32;35010;-77
2023/04/27 03:35:23;;;;;;;;;;;;;;;3.45;72.43;100202.34;4467577;32;35018;-77
2023/04/27 03:37:50;;;;;;;;;;;;;;;3.16;73.36;100208.59;4466104;32;35137;-76
2023/04/27 03:40:17;;;;;;;;;;;;;;;3.40;72.59;100203.63;4454752;32;33578;-77
2023/04/27 03:42:45;;;;;;;;;;;;;;;3.12;73.94;100206.56;4453976;32;33072;-77
2023/04/27 03:45:12;;;;;;;;;;;;;;;3.20;74.05;100210.63;4467388;32;33980;-77
2023/04/27 03:47:39;;;;;;;;;;;;;;;3.31;73.57;100208.94;4465644;32;34158;-77
2023/04/27 03:50:07;;;;;;;;;;;;;;;2.78;76.14;100219.16;4458682;32;33931;-77
2023/04/27 03:52:34;;;;;;;;;;;;;;;2.87;75.89;100222.47;4456075;32;34784;-76
2023/04/27 03:55:03;;;;;;;;;;;;;;;2.87;75.71;100214.78;4451481;32;32552;-77
2023/04/27 03:57:31;;;;;;;;;;;;;;;3.23;74.22;100212.56;4468929;32;33797;-77
2023/04/27 03:59:59;;;;;;;;;;;;;;;3.46;72.82;100222.06;4469749;32;34226;-77
2023/04/27 04:02:26;;;;;;;;;;;;;;;3.71;71.72;100220.66;4466991;32;36075;-76
2023/04/27 04:04:54;;;;;;;;;;;;;;;3.53;72.13;100221.75;4469449;32;34286;-76
2023/04/27 04:07:22;;;;;;;;;;;;;;;3.11;73.38;100230.34;4454498;32;34968;-77
2023/04/27 04:09:49;;;;;;;;;;;;;;;3.09;73.79;100231.88;4467558;32;33466;-77
2023/04/27 04:12:17;;;;;;;;;;;;;;;2.92;74.73;100234.00;4467480;32;34252;-77
2023/04/27 04:14:47;;;;;;;;;;;;;;;3.09;74.58;100231.88;4469089;32;33747;-77
2023/04/27 04:17:15;;;;;;;;;;;;;;;3.01;74.98;100238.06;4475295;32;33979;-77
2023/04/27 04:19:42;;;;;;;;;;;;;;;2.95;74.99;100236.81;4474394;32;33556;-77
2023/04/27 04:22:10;;;;;;;;;;;;;;;2.88;75.58;100237.06;4473222;32;34220;-77
2023/04/27 04:24:39;;;;;;;;;;;;;;;2.76;75.74;100246.28;4456672;32;34182;-77
2023/04/27 04:27:06;;;;;;;;;;;;;;;3.04;74.57;100243.44;4475624;32;35298;-77
2023/04/27 04:29:33;;;;;;;;;;;;;;;3.20;73.07;100243.91;4468802;32;34207;-77
2023/04/27 04:32:01;;;;;;;;;;;;;;;3.20;72.80;100236.22;4469266;32;34030;-77
2023/04/27 04:34:29;;;;;;;;;;;;;;;3.32;71.79;100241.44;4480024;32;34235;-76
2023/04/27 04:36:56;;;;;;;;;;;;;;;3.21;71.71;100243.13;4476437;32;33754;-77
2023/04/27 04:39:25;;;;;;;;;;;;;;;3.42;71.23;100243.06;4480046;32;33404;-76
2023/04/27 04:41:53;;;;;;;;;;;;;;;3.35;70.49;100246.81;4473009;32;34285;-76
2023/04/27 04:44:21;;;;;;;;;;;;;;;3.61;69.80;100251.47;4474912;32;34091;-77
2023/04/27 04:46:48;;;;;;;;;;;;;;;3.84;70.07;100245.56;4479493;32;34849;-77
2023/04/27 04:49:16;;;;;;;;;;;;;;;4.00;69.44;100246.75;4472168;32;33066;-77
2023/04/27 04:51:44;;;;;;;;;;;;;;;4.15;68.62;100253.06;4455021;32;34077;-77
2023/04/27 04:54:11;;;;;;;;;;;;;;;4.42;67.89;100249.16;4469378;32;34063;-77
2023/04/27 04:56:39;;;;;;;;;;;;;;;4.85;66.65;100241.28;4459296;32;34589;-77
2023/04/27 04:59:06;;;;;;;;;;;;;;;4.71;66.80;100253.03;4467101;32;33658;-76
2023/04/27 05:01:33;;;;;;;;;;;;;;;4.33;67.15;100254.50;4469162;32;34328;-77
2023/04/27 05:04:01;;;;;;;;;;;;;;;4.22;68.38;100259.59;4475584;32;34279;-77
2023/04/27 05:06:29;;;;;;;;;;;;;;;4.19;67.42;100264.47;4463592;32;34455;-77
2023/04/27 05:08:56;;;;;;;;;;;;;;;4.87;64.95;100260.25;4450287;32;32666;-77
2023/04/27 05:11:24;;;;;;;;;;;;;;;4.58;66.54;100260.59;4465486;32;34044;-77
2023/04/27 05:13:51;;;;;;;;;;;;;;;5.02;65.08;100255.34;4458231;32;33789;-77
2023/04/27 05:16:18;;;;;;;;;;;;;;;4.85;64.99;100262.69;4477064;32;34387;-77
2023/04/27 05:18:45;;;;;;;;;;;;;;;5.15;64.02;100263.16;4470552;32;33508;-76
2023/04/27 05:21:16;;;;;;;;;;;;;;;5.09;64.73;100263.59;4464997;32;34021;-78
2023/04/27 05:23:43;;;;;;;;;;;;;;;5.06;64.59;100272.75;4447596;32;33883;-77
2023/04/27 05:26:14;;;;;;;;;;;;;;;5.10;64.05;100267.09;4467435;32;35210;-77
2023/04/27 05:28:41;;;;;;;;;;;;;;;5.34;63.55;100275.69;4466231;32;33889;-77
2023/04/27 05:31:08;;;;;;;;;;;;;;;5.51;62.80;100271.78;4467039;32;34929;-76
2023/04/27 05:33:36;;;;;;;;;;;;;;;6.24;61.69;100280.41;4465751;32;32718;-77
2023/04/27 05:36:03;;;;;;;;;;;;;;;6.80;59.98;100273.06;4459609;32;34076;-80
2023/04/27 05:38:32;;;;;;;;;;;;;;;6.58;58.80;100274.97;4456403;32;33588;-77
2023/04/27 05:40:59;;;;;;;;;;;;;;;6.16;60.59;100273.78;4445082;32;33906;-79
2023/04/27 05:43:26;;;;;;;;;;;;;;;6.57;60.48;100281.81;4459965;32;34336;-77
2023/04/27 05:45:54;;;;;;;;;;;;;;;6.45;61.63;100284.44;4454137;32;34057;-77
2023/04/27 05:48:21;;;;;;;;;;;;;;;6.44;60.47;100284.34;4459685;32;33378;-77
2023/04/27 05:50:48;;;;;;;;;;;;;;;6.79;58.75;100286.72;4466460;32;33892;-77
2023/04/27 05:53:16;;;;;;;;;;;;;;;6.78;58.17;100284.94;4476326;32;33927;-78
2023/04/27 05:55:43;;;;;;;;;;;;;;;7.32;57.47;100288.53;4480499;32;34255;-77
2023/04/27 05:58:10;;;;;;;;;;;;;;;7.18;58.27;100290.16;4471404;32;33758;-78
2023/04/27 06:00:38;;;;;;;;;;;;;;;6.94;58.57;100293.72;4457479;32;34063;-78
2023/04/27 06:03:05;;;;;;;;;;;;;;;6.94;60.02;100296.28;4468685;32;34162;-78
2023/04/27 06:05:33;;;;;;;;;;;;;;;7.81;57.55;100294.25;4474907;32;34525;-77
2023/04/27 06:08:00;;;;;;;;;;;;;;;7.81;56.94;100289.09;4472697;32;33309;-77
2023/04/27 06:10:28;;;;;;;;;;;;;;;8.50;55.41;100296.78;4477305;32;35056;-78
2023/04/27 06:12:55;;;;;;;;;;;;;;;8.01;57.88;100302.34;4471107;32;34854;-78
2023/04/27 06:15:22;;;;;;;;;;;;;;;8.45;56.05;100292.22;4473018;32;34184;-77
2023/04/27 06:17:50;;;;;;;;;;;;;;;9.20;54.11;100298.41;4468649;32;34076;-76
2023/04/27 06:20:17;;;;;;;;;;;;;;;8.81;56.53;100302.13;4465946;32;35040;-78
2023/04/27 06:22:45;;;;;;;;;;;;;;;8.61;54.73;100304.38;4462652;32;34731;-77
2023/04/27 06:25:13;;;;;;;;;;;;;;;8.20;54.31;100304.41;4466708;32;34490;-78
2023/04/27 06:27:40;;;;;;;;;;;;;;;8.67;53.49;100303.84;4468094;32;31945;-78
2023/04/27 06:30:08;;;;;;;;;;;;;;;8.96;52.37;100302.13;4467384;32;33878;-78
2023/04/27 06:32:35;;;;;;;;;;;;;;;9.22;51.84;100304.53;4467059;32;34742;-77
2023/04/27 06:35:02;;;;;;;;;;;;;;;9.67;50.27;100295.84;4462207;32;35043;-77
2023/04/27 06:37:30;;;;;;;;;;;;;;;9.75;50.44;100295.47;4466789;32;34101;-79
2023/04/27 06:39:57;;;;;;;;;;;;;;;10.30;47.89;100292.47;4459302;32;32672;-78
2023/04/27 06:42:25;;;;;;;;;;;;;;;10.41;45.80;100286.16;4467857;32;33099;-79
2023/04/27 06:44:54;;;;;;;;;;;;;;;10.67;43.21;100291.81;4467922;32;34318;-78
2023/04/27 06:47:22;;;;;;;;;;;;;;;10.63;43.46;100295.94;4468199;32;34127;-78
2023/04/27 06:49:49;;;;;;;;;;;;;;;11.11;43.08;100298.41;4467951;32;34880;-79
2023/04/27 06:52:17;;;;;;;;;;;;;;;10.78;42.82;100298.44;4462649;32;35060;-78
2023/04/27 06:54:44;;;;;;;;;;;;;;;11.44;41.00;100294.81;4468090;32;34297;-78
2023/04/27 06:57:12;;;;;;;;;;;;;;;11.32;41.90;100298.59;4464749;32;33669;-78
2023/04/27 06:59:39;;;;;;;4.03;1.55;;;;;;;11.69;41.76;100296.91;4467586;32;34049;-78
2023/04/27 07:02:08;;;;;;;6.15;1.62;;;;;;;11.11;41.54;100302.69;4466869;32;33953;-79
2023/04/27 07:04:36;;;;;;;4.30;1.62;;;;;;;11.86;39.77;100298.59;4465637;32;34020;-79
2023/04/27 07:07:04;;;;;;;;;;;;;;;13.46;37.08;100295.31;4464480;32;34136;-79
2023/04/27 07:09:32;;;;;;;;;;;;;;;15.03;35.78;100290.84;4452524;32;34215;-78
2023/04/27 07:12:00;;;;;;;;;;;;;;;16.48;32.74;100287.59;4453918;32;33879;-78
2023/04/27 07:14:27;;;;;;;;;;;;;;;18.19;28.84;100290.16;4467131;32;34510;-78
2023/04/27 07:16:55;;;;;;;;;;;;;;;19.59;26.61;100282.34;4449250;32;32584;-78
2023/04/27 07:19:22;;;;;;;;;;;;;;;20.56;25.63;100274.91;4467431;32;35059;-78
2023/04/27 07:21:49;;;;;;;;;;;;;;;20.68;24.63;100282.09;4467074;32;34076;-78
2023/04/27 07:24:17;;;;;;;;;;;;;;;21.51;23.47;100280.28;4468588;32;34365;-78
2023/04/27 07:26:44;;;;;;;;;;;;;;;20.40;22.54;100289.66;4468099;32;33976;-77
2023/04/27 07:29:12;;;;;;;;;;;;;;;17.84;27.08;100297.25;4454817;32;32313;-77
2023/04/27 07:31:42;;;;;;;;;;;;;;;15.56;28.65;100298.66;4469845;32;34948;-78
2023/04/27 07:34:10;;;;;;;;;;;;;;;15.30;28.05;100300.44;4467056;32;34566;-77
2023/04/27 07:36:37;;;;;;;;;;;;;;;16.08;28.17;100299.47;4465667;32;33513;-77
2023/04/27 07:39:05;;;;;;;;;;;;;;;16.25;27.77;100298.25;4469258;32;34916;-77
2023/04/27 07:41:33;;;;;;;;;;;;;;;16.83;29.30;100300.78;4467500;32;34897;-77
2023/04/27 07:44:01;;;;;;;;;;;;;;;17.70;28.08;100296.91;4471304;32;34214;-78
2023/04/27 07:46:30;;;;;;;;;;;;;;;18.75;27.46;100289.56;4469504;32;33642;-77
2023/04/27 07:48:59;;;;;;;;;;;;;;;19.43;25.63;100291.72;4467334;32;33298;-77
2023/04/27 07:51:28;;;;;;;;;;;;;;;19.11;25.05;100278.03;4459201;32;34262;-77
2023/04/27 07:53:55;;;;;;;;;;;;;;;19.60;25.17;100291.09;4467381;32;35230;-78
2023/04/27 07:56:22;;;;;;;;;;;;;;;20.10;23.38;100291.00;4468201;32;34188;-78
2023/04/27 07:58:50;;;;;;;;;;;;;;;18.00;26.10;100301.09;4468748;32;34884;-78
2023/04/27 08:01:18;;;;;;;;;;;;;;;16.63;26.41;100301.09;4465494;32;34726;-77
2023/04/27 08:03:47;;;;;;;;;;;;;;;16.12;27.47;100296.09;4469641;32;35111;-77
2023/04/27 08:06:15;;;;;;;;;;;;;;;14.47;28.60;100303.56;4469500;32;33609;-77
2023/04/27 08:08:43;;;;;;;;;;;;;;;12.98;30.80;100300.22;4469521;32;35099;-77
2023/04/27 08:11:11;;;;;;;;;;;;;;;13.93;31.71;100298.94;4469221;32;33907;-77
2023/04/27 08:13:38;;;;;;;;;;;;;;;15.65;27.72;100293.75;4468907;32;34523;-78
2023/04/27 08:16:05;;;;;;;;;;;;;;;15.39;28.43;100290.28;4472492;32;32325;-77
2023/04/27 08:18:33;;;;;;;;;;;;;;;14.71;29.64;100295.78;4472640;32;33727;-77
2023/04/27 08:21:00;;;;;;;;;;;;;;;14.51;30.75;100309.81;4469724;32;34229;-77
2023/04/27 08:23:28;;;;;;;;;;;;;;;12.77;31.66;100311.44;4464506;32;34430;-77
2023/04/27 08:25:56;;;;;;;;;;;;;;;12.72;32.58;100314.66;4458676;32;33343;-77
2023/04/27 08:28:23;;;;;;;;;;;;;;;13.07;32.63;100313.59;4471686;32;34546;-77
2023/04/27 08:30:51;;;;;;;;;;;;;;;13.08;32.29;100304.97;4470468;32;35055;-78
2023/04/27 08:33:18;;;;;;;;;;;;;;;12.92;32.67;100302.53;4470131;32;34404;-78
2023/04/27 08:35:45;;;;;;;;;;;;;;;12.70;31.77;100309.38;4455922;32;33129;-78
2023/04/27 08:38:13;;;;;;;;;;;;;;;11.78;33.97;100315.50;4473467;32;34276;-77
2023/04/27 08:40:43;;;;;;;;;;;;;;;11.64;34.74;100306.16;4474208;32;34041;-77
2023/04/27 08:43:11;;;;;;;;;;;;;;;12.07;36.67;100309.16;4465804;32;35026;-77
2023/04/27 08:45:38;;;;;;;;;;;;;;;13.96;33.05;100304.28;4474091;32;33443;-78
2023/04/27 08:48:07;;;;;;;;;;;;;;;12.70;32.16;100314.59;4469870;32;34483;-78
2023/04/27 08:50:35;;;;;;;;;;;;;;;14.31;31.17;100311.63;4461035;32;34930;-77
2023/04/27 08:53:02;;;;;;;;;;;;;;;15.15;29.53;100300.78;4456248;32;35205;-76
2023/04/27 08:55:29;;;;;;;;;;;;;;;15.48;30.24;100295.81;4469084;32;34196;-78
2023/04/27 08:57:57;;;;;;;;;;;;;;;16.35;26.54;100299.41;4468444;32;33437;-77
2023/04/27 09:00:25;;;;;;;;;;;;;;;16.82;26.26;100291.16;4455850;32;35739;-77
2023/04/27 09:02:52;;;;;;;;;;;;;;;16.15;28.09;100290.06;4468575;32;34254;-77
2023/04/27 09:05:20;;;;;;;;;;;;;;;15.04;27.76;100276.94;4477942;32;34183;-78
2023/04/27 09:07:57;;;;;;;;;;;;;;;16.18;29.12;100280.59;4473261;32;35093;-77
2023/04/27 09:10:27;;;;;;;;;;;;;;;14.21;30.12;100289.56;4457439;32;33679;-77
2023/04/27 09:12:59;;;;;;;;;;;;;;;16.12;28.79;100280.41;4479003;32;34275;-77
2023/04/27 09:15:28;;;;;;;;;;;;;;;16.08;27.89;100283.78;4453642;32;33094;-77
2023/04/27 09:17:55;;;;;;;;;;;;;;;16.34;27.71;100274.13;4450097;32;34230;-77
2023/04/27 09:20:23;;;;;;;;;;;;;;;15.58;29.31;100275.22;4451929;32;35012;-77
2023/04/27 09:22:51;;;;;;;;;;;;;;;15.57;29.17;100273.44;4451559;32;34382;-77
2023/04/27 09:25:22;;;;;;;;;;;;;;;16.80;28.89;100277.13;4452633;32;33342;-77
2023/04/27 09:27:49;;;;;;;;;;;;;;;16.25;27.27;100276.44;4452536;32;33897;-77
2023/04/27 09:30:17;;;;;;;;;;;;;;;15.41;29.81;100267.72;4453046;32;33487;-77
2023/04/27 09:32:50;;;;;;;;;;;;;;;15.94;27.86;100274.66;4453016;32;35217;-77
2023/04/27 09:35:21;;;;;;;;;;;;;;;15.18;29.12;100271.28;4453472;32;33606;-78
2023/04/27 09:37:50;;;;;;;;;;;;;;;14.70;28.45;100265.34;4452422;32;34156;-77
2023/04/27 09:40:19;;;;;;;;;;;;;;;15.89;27.69;100267.53;4453405;32;35064;-77
2023/04/27 09:42:46;;;;;;;;;;;;;;;14.86;30.35;100258.94;4453256;32;34254;-78
2023/04/27 09:45:13;;;;;;;;;;;;;;;15.88;28.10;100262.28;4451000;32;33168;-77
2023/04/27 09:47:41;;;;;;;;;;;;;;;15.90;28.37;100264.09;4453097;32;34334;-77
2023/04/27 09:50:09;;;;;;;;;;;;;;;15.77;28.25;100256.72;4437696;32;33756;-78
2023/04/27 09:52:36;;;;;;;;;;;;;;;13.91;29.08;100256.31;4453565;32;34341;-78
2023/04/27 09:55:05;;;;;;;;;;;;;;;14.12;29.47;100263.19;4452160;32;33548;-77
2023/04/27 09:57:38;;;;;;;;;;;;;;;13.54;29.18;100266.97;4453166;32;34149;-78
2023/04/27 10:00:09;;;;;;;;;;;;;;;14.24;29.79;100261.03;4451599;32;33652;-77
2023/04/27 10:02:40;;;;;;;;;;;;;;;14.03;29.83;100249.81;4452867;32;34560;-78
2023/04/27 10:05:35;;;;;;;;;;;;;;;14.67;29.95;100246.97;4440199;32;33317;-77
2023/04/27 10:08:03;;;;;;;;;;;;;;;15.70;32.54;100239.03;4450845;32;34134;-78
2023/04/27 10:10:40;;;;;;;;;;;;;;;15.23;28.45;100235.81;4449721;32;34892;-77
2023/04/27 10:13:08;;;;;;;;;;;;;;;14.28;29.03;100246.41;4452047;32;34476;-77
2023/04/27 10:15:38;;;;;;;;;;;;;;;15.08;28.98;100242.28;4448930;32;32086;-77
2023/04/27 10:18:06;;;;;;;;;;;;;;;14.71;28.74;100243.63;4452790;32;35086;-78
2023/04/27 10:20:35;;;;;;;;;;;;;;;14.70;29.14;100241.88;4449726;32;34136;-78
2023/04/27 10:23:02;;;;;;;;;;;;;;;15.83;29.62;100230.78;4439024;32;34687;-78
2023/04/27 10:25:40;;;;;;;;;;;;;;;16.43;28.44;100239.50;4454098;32;33375;-78
2023/04/27 10:28:13;;;;;;;;;;;;;;;16.22;27.91;100231.91;4451306;32;34293;-78
2023/04/27 10:30:44;;;;;;;;;;;;;;;16.75;28.18;100243.00;4452536;32;33748;-78
2023/04/27 10:33:14;;;;;;;;;;;;;;;16.93;27.12;100232.16;4438915;32;34230;-78
2023/04/27 10:35:42;;;;;;;;;;;;;;;16.46;28.09;100229.12;4438876;32;33304;-79
2023/04/27 10:38:16;;;;;;;;;;;;;;;15.98;28.57;100239.94;4439924;32;32656;-79
2023/04/27 10:40:44;;;;;;;;;;;;;;;15.04;29.55;100240.41;4454880;32;33944;-78
2023/04/27 10:43:16;;;;;;;;;;;;;;;16.16;27.28;100245.69;4452260;32;35018;-77
2023/04/27 10:45:44;;;;;;;;;;;;;;;15.61;28.57;100233.56;4452930;32;32810;-77
2023/04/27 10:48:14;;;;;;;;;;;;;;;15.44;29.65;100246.94;4452198;32;34341;-78
2023/04/27 10:50:43;;;;;;;;;;;;;;;15.08;29.59;100244.88;4446485;32;33736;-77
2023/04/27 10:53:11;;;;;;;;;;;;;;;14.33;29.60;100247.44;4459758;32;34654;-78
2023/04/27 10:55:38;;;;;;;;;;;;;;;14.51;30.59;100247.25;4457524;32;34265;-79
2023/04/27 10:58:06;;;;;;;;;;;;;;;14.92;30.08;100240.00;4456868;32;33897;-79
2023/04/27 11:00:43;;;;;;;;;;;;;;;15.31;29.89;100244.78;4450772;32;33771;-77
2023/04/27 11:03:13;;;;;;;;;;;;;;;15.34;29.12;100239.66;4445360;32;34429;-79
2023/04/27 11:05:44;;;;;;;;;;;;;;;15.69;29.48;100242.50;4447818;32;32733;-79
2023/04/27 11:08:13;;;;;;;;;;;;;;;15.57;30.03;100229.06;4450774;32;34223;-77
2023/04/27 11:10:50;;;;;;;;;;;;;;;15.67;29.61;100233.75;4456390;32;35146;-77
2023/04/27 11:13:19;;;;;;;;;;;;;;;15.71;30.11;100235.59;4461589;32;34391;-78
2023/04/27 11:15:47;;;;;;;;;;;;;;;16.18;29.19;100230.94;4452733;32;34924;-77
2023/04/27 11:18:16;;;;;;;;;;;;;;;16.17;29.64;100237.03;4473124;32;34895;-77
2023/04/27 11:20:46;;;;;;;;;;;;;;;15.65;29.56;100235.44;4481468;32;33974;-78
2023/04/27 11:23:24;;;;;;;;;;;;;;;15.86;29.90;100233.50;4464467;32;32998;-78
2023/04/27 11:25:51;;;;;;;;;;;;;;;16.38;29.80;100220.16;4473901;32;33194;-79
2023/04/27 11:28:20;;;;;;;;;;;;;;;16.25;29.20;100213.72;4483243;32;33935;-78
2023/04/27 11:30:54;;;;;;;;;;;;;;;14.78;29.55;100228.22;4474811;32;33979;-77
2023/04/27 11:33:22;;;;;;;;;;;;;;;14.81;29.03;100228.31;4476964;32;34630;-77
2023/04/27 11:35:49;;;;;;;;;;;;;;;14.82;29.96;100228.38;4482114;32;33726;-77
2023/04/27 11:38:17;;;;;;;;;;;;;;;15.08;29.19;100237.06;4458583;32;34093;-77
2023/04/27 11:40:45;;;;;;;;;;;;;;;15.81;29.63;100232.47;4466813;32;34296;-77
2023/04/27 11:43:12;;;;;;;;;;;;;;;15.18;30.73;100232.16;4457573;32;34967;-78
2023/04/27 11:45:43;;;;;;;;;;;;;;;16.09;29.84;100234.19;4469168;32;34470;-77
2023/04/27 11:48:14;;;;;;;;;;;;;;;15.20;29.36;100220.03;4483071;32;32428;-77
2023/04/27 11:50:48;;;;;;;;;;;;;;;15.29;30.12;100228.19;4460532;32;33477;-78
2023/04/27 11:53:15;;;;;;;;;;;;;;;15.23;30.80;100225.38;4477560;32;34445;-77
2023/04/27 11:55:50;;;;;;;;;;;;;;;16.11;30.32;100236.84;4463930;32;33609;-79
2023/04/27 11:58:18;;;;;;;;;;;;;;;16.23;28.62;100221.50;4443036;32;32397;-81
2023/04/27 12:00:46;;;;;;;;;;;;;;;15.19;29.00;100239.16;4445351;32;34031;-80
2023/04/27 12:03:13;;;;;;;;;;;;;;;15.21;29.08;100232.28;4429500;32;34094;-80
2023/04/27 12:05:51;;;;;;;;;;;;;;;15.24;29.60;100224.53;4460146;32;33974;-81
2023/04/27 12:08:19;;;;;;;;;;;;;;;15.84;30.39;100232.56;4473214;32;34315;-81
2023/04/27 12:10:46;;;;;;;;;;;;;;;15.04;29.51;100235.19;4465647;32;33617;-81
2023/04/27 12:13:13;;;;;;;;;;;;;;;15.89;30.15;100232.69;4478188;32;34425;-79
2023/04/27 12:15:42;;;;;;;;;;;;;;;16.19;30.03;100229.22;4474454;32;34258;-80
2023/04/27 12:18:09;;;;;;;;;;;;;;;16.59;28.82;100225.09;4458766;32;33503;-78
2023/04/27 12:20:37;;;;;;;;;;;;;;;16.59;27.60;100215.53;4469928;32;33505;-79
2023/04/27 12:23:04;;;;;;;;;;;;;;;16.40;30.15;100218.47;4469843;32;34983;-77
2023/04/27 12:25:32;;;;;;;;;;;;;;;16.44;26.71;100217.75;4469677;32;33630;-77
2023/04/27 12:27:59;;;;;;;;;;;;;;;15.67;27.59;100223.31;4458310;32;34248;-78
2023/04/27 12:30:26;;;;;;;;;;;;;;;15.61;28.85;100223.13;4468613;32;34330;-79
2023/04/27 12:32:54;;;;;;;;;;;;;;;15.93;28.67;100221.50;4458864;32;34413;-78
2023/04/27 12:35:21;;;;;;;;;;;;;;;16.04;27.70;100213.97;4469555;32;33705;-78
2023/04/27 12:37:49;;;;;;;;;;;;;;;16.75;27.70;100215.97;4469935;32;33949;-79
2023/04/27 12:40:16;;;;;;;;;;;;;;;15.65;28.32;100222.38;4469584;32;33667;-79
2023/04/27 12:42:43;;;;;;;;;;;;;;;16.04;30.68;100220.09;4469651;32;35091;-78
2023/04/27 12:45:10;;;;;;;;;;;;;;;16.35;28.31;100217.47;4469625;32;33362;-78